AirNav   Bose Proflight Series 2 Wireless Aviation Headset
 
 1190 users online  

2PN2 Fortman Heliport
Shrewsbury, Pennsylvania, USA

GOING TO SHREWSBURY?


FAA INFORMATION EFFECTIVE 07 NOVEMBER 2019

Location

FAA Identifier: 2PN2
Lat/Long: 39-47-15.0000N 076-38-50.0000W
39-47.250000N 076-38.833333W
39.7875000,-76.6472222
(estimated)
Elevation: 990 ft. / 302 m (estimated)
Variation: 11W (1995)
From city: 2 miles NE of SHREWSBURY, PA
Time zone: UTC -5 (UTC -4 during Daylight Saving Time)
Zip code: 17349

Heliport Operations

Heliport use: Private use. Permission required prior to landing
Activation date: 08/1999
Control tower: no
ARTCC: WASHINGTON CENTER
FSS: WILLIAMSPORT FLIGHT SERVICE STATION
Attendance: UNATNDD
Wind indicator: yes
Segmented circle: no
Lights: FLOOD LIGHTS & BCN FOR NIGHT OPERATIONS.

Heliport Communications

WX ASOS at THV (13 nm NW): 119.275 (717-792-5529)
WX AWOS-3 at DMW (20 nm SW): 121.25 (410-876-1281)

Nearby radio navigation aids

VOR radial/distance  VOR name  Freq  Var
EMIr049/23.3WESTMINSTER VORTAC117.9008W
LRPr228/25.8LANCASTER VOR/DME117.3009W
HARr158/36.5HARRISBURG VORTAC112.5010W
BALr012/37.0BALTIMORE VORTAC115.1011W

 
NDB name  Hdg/Dist  Freq  Var  ID
ELLICOTT022/30.637111WFND ..-. -. -..
BELLGROVE196/39.132810WBZJ -... --.. .---

Heliport Services

Runway Information

Helipad H1

Dimensions: 60 x 60 ft. / 18 x 18 m
Surface: turf, in good condition
Traffic pattern: leftleft

Heliport Ownership and Management from official FAA records

Ownership: Privately-owned
Owner: LOUIS FORTMAN
1764 SWEITZER RD
NEW FREEDOM, PA 17349
Phone 717-235-3730
Manager: LOUIS FORTMAN
1764 SWEITZER RD
NEW FREEDOM, PA 17349
Phone 717-235-3730

Heliport Operational Statistics

Aircraft based on the field: 1
Helicopters: 1
    

Additional Remarks

FOR CD CTC POTOMAC APCH AT 866-429-5882

Instrument Procedures

There are no published instrument procedures at 2PN2.

Some nearby airports with instrument procedures:

KTHV - York Airport (13 nm NW)
N71 - Donegal Springs Airpark (19 nm N)
KDMW - Carroll County Regional Airport/Jack B Poage Field (20 nm SW)
0W3 - Harford County Airport (24 nm SE)
KMDT - Harrisburg International Airport (25 nm N)
 
Loc | Ops | Rwys | IFR | FBO | Links
Com | Nav | Svcs | Stats | Notes
Area around 2PN2 (Fortman Heliport)
 
Road maps at: MapQuest Bing Google
 
Aerial photo
No photo
 
Sectional chart

 
Airport distance calculator
Flying to Fortman Heliport? Find the distance to fly.

From to 2PN2

Sunrise and sunset
Times for 20-Nov-2019
 Local
(UTC-5)
 Zulu
(UTC)
Morning civil twilight06:2911:29
Sunrise06:5811:58
Sunset16:4721:47
Evening civil twilight17:1622:16

Current date and time
Zulu (UTC)  20-Nov-2019 13:21:53
Local (UTC-5)  20-Nov-2019 08:21:53
 
METAR
KTHV 
13nm NW 
201253Z AUTO 29003KT 9SM OVC070 06/01 A3000 RMK AO2 SLP163 T00560011
KDMW 
20nm SW 
201250Z AUTO 31004KT 10SM OVC060 07/02 A3000 RMK AO2
KMDT 
25nm N 
201256Z 32008KT 10SM FEW040 OVC065 07/01 A3000 RMK AO2 SLP160 T00720006
KLNS 
25nm NE 
201253Z 31005KT 10SM SCT030 OVC060 06/01 A2999 RMK AO2 SLP156 T00610011
TAF
KMDT 
25nm N 
201148Z 2012/2112 31005KT P6SM OVC050 FM201600 32012KT P6SM BKN050 FM202300 32008KT P6SM SCT050 FM210700 31004KT P6SM FEW050
KLNS 
25nm NE 
201148Z 2012/2112 29005KT P6SM OVC050 FM201600 32012G18KT P6SM BKN050 FM202300 31010KT P6SM SCT050 FM210700 31005KT P6SM FEW050
KMTN 
30nm S 
201141Z 2012/2112 30003KT P6SM SCT050 OVC100 FM201600 32010G18KT P6SM BKN050 FM202300 31010KT P6SM FEW100 FM210500 31005KT P6SM FEW150 FM211100 VRB03KT P6SM FEW200
NOTAMs
Click for the latest NOTAMs
NOTAMs are issued by the DoD/FAA and will open in a separate window not controlled by AirNav.

 

 
 

Would you like to see your business listed on this page?

 If your business provides an interesting product or service to pilots, flight crews, aircraft, or users of the Fortman Heliport, you should consider listing it here.  To start the listing process, click on the button below
 
Add a business
 

Other Pages about Fortman Heliport

Update a link
 
Copyright © AirNav, LLC. All rights reserved. Privacy Policy  Contact